createdAt,value
2023-08-30T00:01:19.757Z,25.13
2023-08-30T00:03:47.340Z,25.13
2023-08-30T00:06:14.990Z,25.13
2023-08-30T00:08:42.461Z,25.14
2023-08-30T00:11:10.001Z,25.14
2023-08-30T00:13:37.514Z,25.13
2023-08-30T00:16:05.292Z,25.10
2023-08-30T00:18:32.877Z,25.09
2023-08-30T00:21:00.548Z,25.06
2023-08-30T00:23:28.082Z,25.04
2023-08-30T00:25:55.589Z,25.01
2023-08-30T00:28:23.128Z,25.02
2023-08-30T00:30:57.114Z,25.05
2023-08-30T00:33:24.883Z,25.05
2023-08-30T00:36:02.084Z,25.05
2023-08-30T00:38:29.982Z,25.04
2023-08-30T00:40:57.647Z,25.03
2023-08-30T00:43:26.051Z,25.03
2023-08-30T00:45:53.566Z,25.01
2023-08-30T00:48:21.522Z,24.99
2023-08-30T00:50:49.073Z,24.98
2023-08-30T00:53:16.661Z,24.95
2023-08-30T00:55:44.647Z,24.91
2023-08-30T00:58:12.801Z,24.86
2023-08-30T01:00:40.948Z,24.87
2023-08-30T01:03:11.467Z,24.87
2023-08-30T01:05:39.078Z,24.86
2023-08-30T01:08:07.222Z,24.84
2023-08-30T01:10:53.780Z,24.83
2023-08-30T01:13:21.697Z,24.82
2023-08-30T01:15:50.103Z,24.80
2023-08-30T01:18:19.217Z,24.78
2023-08-30T01:20:47.749Z,24.76
2023-08-30T01:23:18.234Z,24.73
2023-08-30T01:26:12.111Z,24.70
2023-08-30T01:28:40.407Z,24.67
2023-08-30T01:31:09.462Z,24.68
2023-08-30T01:33:37.758Z,24.70
2023-08-30T01:36:06.215Z,24.69
2023-08-30T01:38:34.295Z,24.69
2023-08-30T01:41:03.074Z,24.68
2023-08-30T01:43:31.104Z,24.67
2023-08-30T01:45:59.000Z,24.66
2023-08-30T01:48:26.692Z,24.63
2023-08-30T01:50:55.880Z,24.61
2023-08-30T01:53:23.420Z,24.57
2023-08-30T01:55:51.043Z,24.53
2023-08-30T01:58:20.255Z,24.50
2023-08-30T02:00:48.022Z,24.47
2023-08-30T02:03:15.925Z,24.48
2023-08-30T02:06:03.207Z,24.50
2023-08-30T02:08:43.135Z,24.50
2023-08-30T02:11:16.965Z,24.48
2023-08-30T02:13:44.622Z,24.47
2023-08-30T02:16:12.373Z,24.47
2023-08-30T02:18:42.949Z,24.46
2023-08-30T02:21:10.489Z,24.44
2023-08-30T02:23:38.043Z,24.42
2023-08-30T02:26:05.662Z,24.40
2023-08-30T02:28:33.382Z,24.36
2023-08-30T02:31:00.984Z,24.38
2023-08-30T02:33:28.562Z,24.42
2023-08-30T02:35:56.265Z,24.42
2023-08-30T02:38:25.372Z,24.43
2023-08-30T02:40:52.872Z,24.42
2023-08-30T02:43:20.421Z,24.41
2023-08-30T02:45:47.978Z,24.39
2023-08-30T02:48:16.106Z,24.35
2023-08-30T02:50:43.713Z,24.32
2023-08-30T02:53:11.450Z,24.27
2023-08-30T02:55:38.981Z,24.24
2023-08-30T02:58:06.723Z,24.26
2023-08-30T03:00:35.714Z,24.29
2023-08-30T03:03:03.821Z,24.28
2023-08-30T03:05:31.448Z,24.26
2023-08-30T03:07:58.987Z,24.25
2023-08-30T03:10:26.789Z,24.23
2023-08-30T03:12:54.433Z,24.21
2023-08-30T03:15:22.074Z,24.18
2023-08-30T03:17:49.634Z,24.16
2023-08-30T03:20:17.395Z,24.13
2023-08-30T03:22:44.877Z,24.16
2023-08-30T03:25:12.748Z,24.19
2023-08-30T03:27:40.800Z,24.20
2023-08-30T03:30:09.486Z,24.21
2023-08-30T03:32:38.125Z,24.16
2023-08-30T03:35:06.612Z,24.22
2023-08-30T03:37:34.216Z,24.22
2023-08-30T03:40:03.172Z,24.21
2023-08-30T03:42:30.805Z,24.18
2023-08-30T03:44:58.544Z,24.21
2023-08-30T03:47:26.268Z,24.26
2023-08-30T03:49:53.893Z,24.27
2023-08-30T03:52:21.466Z,24.28
2023-08-30T03:54:49.119Z,24.30
2023-08-30T03:57:16.654Z,24.30
2023-08-30T03:59:44.246Z,24.31
2023-08-30T04:02:12.006Z,24.32
2023-08-30T04:04:39.773Z,24.27
2023-08-30T04:07:07.303Z,24.37
2023-08-30T04:09:34.948Z,24.43
2023-08-30T04:12:02.571Z,24.46
2023-08-30T04:14:30.122Z,24.48
2023-08-30T04:16:58.718Z,24.52
2023-08-30T04:19:26.295Z,24.54
2023-08-30T04:21:53.815Z,24.57
2023-08-30T04:24:21.324Z,24.59
2023-08-30T04:26:52.823Z,24.60
2023-08-30T04:29:20.418Z,24.60
2023-08-30T04:31:47.990Z,24.65
2023-08-30T04:34:17.363Z,24.71
2023-08-30T04:36:45.686Z,24.75
2023-08-30T04:39:15.019Z,24.77
2023-08-30T04:41:43.203Z,24.81
2023-08-30T04:44:10.796Z,24.85
2023-08-30T04:46:38.366Z,24.82
2023-08-30T04:49:06.024Z,24.87
2023-08-30T04:51:34.127Z,24.88
2023-08-30T04:54:01.826Z,24.92
2023-08-30T04:56:29.369Z,24.98
2023-08-30T04:58:58.511Z,25.07
2023-08-30T05:01:26.285Z,25.13
2023-08-30T05:03:57.244Z,25.16
2023-08-30T05:06:25.203Z,25.21
2023-08-30T05:08:52.751Z,25.26
2023-08-30T05:13:42.661Z,25.31
2023-08-30T05:16:10.439Z,25.30
2023-08-30T05:18:38.235Z,25.35
2023-08-30T05:21:06.079Z,25.41
2023-08-30T05:23:33.869Z,25.43
2023-08-30T05:26:01.507Z,25.44
2023-08-30T05:28:29.110Z,25.46
2023-08-30T05:30:57.444Z,25.47
2023-08-30T05:33:32.115Z,25.48
2023-08-30T05:36:09.245Z,25.50
2023-08-30T05:38:52.555Z,25.52
2023-08-30T05:41:49.309Z,25.55
2023-08-30T05:44:17.007Z,25.62
2023-08-30T05:46:44.523Z,25.67
2023-08-30T05:49:12.588Z,25.72
2023-08-30T05:51:40.080Z,25.76
2023-08-30T05:54:08.162Z,25.80
2023-08-30T05:56:35.808Z,25.83
2023-08-30T05:59:03.372Z,25.86
2023-08-30T06:01:30.957Z,25.89
2023-08-30T06:03:58.799Z,25.91
2023-08-30T06:06:28.595Z,25.95
2023-08-30T06:08:56.079Z,25.98
2023-08-30T06:11:23.724Z,26.04
2023-08-30T06:13:51.805Z,26.11
2023-08-30T06:16:19.326Z,26.19
2023-08-30T06:18:47.009Z,26.27
2023-08-30T06:21:14.539Z,26.34
2023-08-30T06:23:42.577Z,26.41
2023-08-30T06:26:10.244Z,26.47
2023-08-30T06:28:38.943Z,26.51
2023-08-30T06:31:06.682Z,26.58
2023-08-30T06:33:34.205Z,26.63
2023-08-30T06:36:01.706Z,26.68
2023-08-30T06:38:29.223Z,26.72
2023-08-30T06:40:59.393Z,26.77
2023-08-30T06:43:27.078Z,26.84
2023-08-30T06:45:54.741Z,26.93
2023-08-30T06:48:22.303Z,27.00
2023-08-30T06:50:49.797Z,27.07
2023-08-30T06:53:17.510Z,27.16
2023-08-30T06:55:45.068Z,27.23
2023-08-30T06:58:12.839Z,27.26
2023-08-30T07:00:40.358Z,27.29
2023-08-30T07:03:08.010Z,27.34
2023-08-30T07:05:35.665Z,27.40
2023-08-30T07:08:03.970Z,27.44
2023-08-30T07:10:31.533Z,27.48
2023-08-30T07:12:59.129Z,27.53
2023-08-30T07:15:26.859Z,27.55
2023-08-30T07:17:56.260Z,27.57
2023-08-30T07:20:25.014Z,27.62
2023-08-30T07:22:52.521Z,27.67
2023-08-30T07:25:20.097Z,27.75
2023-08-30T07:27:47.576Z,27.84
2023-08-30T07:30:15.496Z,27.94
2023-08-30T07:32:43.531Z,28.00
2023-08-30T07:35:13.226Z,28.07
2023-08-30T07:37:42.419Z,28.16
2023-08-30T07:40:10.950Z,28.25
2023-08-30T07:42:38.488Z,28.34
2023-08-30T07:45:07.059Z,28.41
2023-08-30T07:47:34.654Z,28.50
2023-08-30T07:50:02.310Z,28.58
2023-08-30T07:52:43.797Z,28.66
2023-08-30T07:55:14.322Z,28.73
2023-08-30T07:57:41.966Z,28.82
2023-08-30T08:00:10.481Z,28.93
2023-08-30T08:02:41.588Z,29.01
2023-08-30T08:05:09.542Z,29.09
2023-08-30T08:07:39.579Z,29.21
2023-08-30T08:10:08.318Z,29.32
2023-08-30T08:12:36.085Z,29.44
2023-08-30T08:15:04.418Z,29.56
2023-08-30T08:17:31.982Z,29.66
2023-08-30T08:19:59.647Z,29.69
2023-08-30T08:22:27.310Z,29.70
2023-08-30T08:24:57.609Z,29.70
2023-08-30T08:27:28.585Z,29.73
2023-08-30T08:29:56.170Z,29.77
2023-08-30T08:32:24.074Z,29.84
2023-08-30T08:34:51.601Z,29.86
2023-08-30T08:37:19.064Z,29.92
2023-08-30T08:39:47.773Z,30.01
2023-08-30T08:42:18.891Z,30.10
2023-08-30T08:44:52.173Z,30.14
2023-08-30T08:47:20.785Z,30.18
2023-08-30T08:49:49.080Z,30.27
2023-08-30T08:52:29.371Z,30.40
2023-08-30T08:55:00.969Z,30.56
2023-08-30T08:57:29.686Z,30.68
2023-08-30T08:59:57.898Z,30.77
2023-08-30T09:02:25.553Z,30.83
2023-08-30T09:04:54.095Z,30.90
2023-08-30T09:07:21.713Z,30.98
2023-08-30T09:09:49.287Z,31.07
2023-08-30T09:12:16.765Z,31.15
2023-08-30T09:14:55.528Z,31.24
2023-08-30T09:17:23.212Z,31.34
2023-08-30T09:19:51.562Z,31.42
2023-08-30T09:22:19.318Z,31.45
2023-08-30T09:24:46.921Z,31.46
2023-08-30T09:27:14.444Z,31.46
2023-08-30T09:29:46.563Z,31.45
2023-08-30T09:32:15.133Z,31.45
2023-08-30T09:34:49.045Z,31.44
2023-08-30T09:37:23.390Z,31.45
2023-08-30T09:39:51.701Z,31.46
2023-08-30T09:42:19.412Z,31.50
2023-08-30T09:44:47.472Z,31.56
2023-08-30T09:47:16.801Z,31.64
2023-08-30T09:49:46.531Z,31.84
2023-08-30T09:52:16.102Z,32.09
2023-08-30T09:54:45.079Z,32.33
2023-08-30T09:57:12.765Z,32.62
2023-08-30T09:59:40.835Z,32.88
2023-08-30T10:02:09.616Z,33.04
2023-08-30T10:04:40.341Z,33.19
2023-08-30T10:07:08.134Z,33.39
2023-08-30T10:09:35.895Z,33.53
2023-08-30T10:12:04.170Z,33.75
2023-08-30T10:14:31.849Z,34.01
2023-08-30T10:17:04.466Z,34.25
2023-08-30T10:19:32.520Z,34.33
2023-08-30T10:22:05.716Z,34.33
2023-08-30T10:24:42.286Z,34.39
2023-08-30T10:27:16.268Z,34.58
2023-08-30T10:29:43.933Z,34.77
2023-08-30T10:32:11.526Z,34.95
2023-08-30T10:34:39.090Z,35.02
2023-08-30T10:37:11.459Z,34.92
2023-08-30T10:39:40.347Z,34.88
2023-08-30T10:42:12.241Z,34.92
2023-08-30T10:45:09.898Z,35.04
2023-08-30T10:47:40.909Z,35.21
2023-08-30T10:50:11.702Z,35.30
2023-08-30T10:52:39.648Z,35.29
2023-08-30T10:55:10.671Z,35.28
2023-08-30T10:57:38.777Z,35.35
2023-08-30T11:00:10.912Z,35.47
2023-08-30T11:02:38.971Z,35.55
2023-08-30T11:05:08.087Z,35.44
2023-08-30T11:07:35.633Z,35.27
2023-08-30T11:10:05.955Z,35.10
2023-08-30T11:12:34.223Z,34.85
2023-08-30T11:15:01.889Z,34.67
2023-08-30T11:17:29.503Z,34.54
2023-08-30T11:20:09.674Z,34.48
2023-08-30T11:22:40.957Z,34.57
2023-08-30T11:25:12.617Z,34.63
2023-08-30T11:27:40.510Z,34.56
2023-08-30T11:30:09.629Z,34.53
2023-08-30T11:32:37.794Z,34.62
2023-08-30T11:35:06.209Z,34.85
2023-08-30T11:37:33.981Z,35.04
2023-08-30T11:40:02.758Z,35.07
2023-08-30T11:42:30.354Z,35.12
2023-08-30T11:45:01.217Z,35.29
2023-08-30T11:47:28.952Z,35.50
2023-08-30T11:49:58.089Z,35.63
2023-08-30T11:52:26.872Z,35.49
2023-08-30T11:54:54.841Z,35.29
2023-08-30T11:57:23.049Z,35.07
2023-08-30T11:59:52.323Z,34.96
2023-08-30T12:02:20.168Z,35.04
2023-08-30T12:04:48.439Z,35.22
2023-08-30T12:07:24.384Z,35.33
2023-08-30T12:09:52.411Z,35.41
2023-08-30T12:12:21.264Z,35.37
2023-08-30T12:14:57.275Z,35.19
2023-08-30T12:17:25.384Z,34.98
2023-08-30T12:19:57.545Z,34.97
2023-08-30T12:22:25.850Z,35.22
2023-08-30T12:24:54.511Z,35.62
2023-08-30T12:27:22.056Z,36.07
2023-08-30T12:29:49.535Z,36.49
2023-08-30T12:32:17.756Z,36.76
2023-08-30T12:34:45.394Z,36.90
2023-08-30T12:37:12.947Z,36.99
2023-08-30T12:39:40.555Z,37.21
2023-08-30T12:42:09.413Z,37.47
2023-08-30T12:44:38.024Z,37.80
2023-08-30T12:47:05.764Z,38.21
2023-08-30T12:49:34.397Z,38.40
2023-08-30T12:52:02.183Z,38.34
2023-08-30T12:54:29.708Z,38.01
2023-08-30T12:56:57.454Z,37.55
2023-08-30T12:59:25.580Z,37.11
2023-08-30T13:01:53.286Z,36.71
2023-08-30T13:04:21.566Z,36.28
2023-08-30T13:06:49.143Z,35.84
2023-08-30T13:09:16.679Z,35.44
2023-08-30T13:11:44.807Z,35.06
2023-08-30T13:14:12.311Z,34.74
2023-08-30T13:16:40.196Z,34.53
2023-08-30T13:19:07.876Z,34.37
2023-08-30T13:21:41.067Z,34.40
2023-08-30T13:24:09.025Z,34.58
2023-08-30T13:26:36.624Z,34.84
2023-08-30T13:29:04.457Z,35.24
2023-08-30T13:31:32.453Z,35.53
2023-08-30T13:34:00.377Z,35.72
2023-08-30T13:36:29.330Z,35.80
2023-08-30T13:38:57.889Z,35.82
2023-08-30T13:41:25.568Z,35.79
2023-08-30T13:43:53.047Z,35.75
2023-08-30T13:46:20.758Z,35.75
2023-08-30T13:48:49.113Z,35.68
2023-08-30T13:51:23.053Z,35.49
2023-08-30T13:53:51.609Z,35.30
2023-08-30T13:56:23.005Z,35.30
2023-08-30T13:58:50.896Z,35.56
2023-08-30T14:01:18.457Z,35.94
2023-08-30T14:03:46.118Z,36.23
2023-08-30T14:06:13.875Z,36.45
2023-08-30T14:08:41.456Z,36.57
2023-08-30T14:11:09.205Z,36.45
2023-08-30T14:13:36.725Z,36.16
2023-08-30T14:16:04.986Z,35.79
2023-08-30T14:18:33.180Z,35.34
2023-08-30T14:21:01.073Z,34.81
2023-08-30T14:23:30.204Z,34.35
2023-08-30T14:26:01.518Z,34.01
2023-08-30T14:28:29.296Z,33.83
2023-08-30T14:30:57.462Z,33.89
2023-08-30T14:33:24.983Z,34.08
2023-08-30T14:35:52.492Z,34.38
2023-08-30T14:38:20.998Z,34.84
2023-08-30T14:41:01.748Z,35.41
2023-08-30T14:43:29.421Z,36.00
2023-08-30T14:46:10.724Z,36.39
2023-08-30T14:48:40.786Z,36.62
2023-08-30T14:51:09.025Z,36.85
2023-08-30T14:53:37.137Z,36.88
2023-08-30T14:56:08.179Z,36.67
2023-08-30T14:58:37.005Z,36.27
2023-08-30T15:01:06.028Z,35.78
2023-08-30T15:03:34.090Z,35.29
2023-08-30T15:06:02.165Z,34.78
2023-08-30T15:08:30.009Z,34.34
2023-08-30T15:10:58.799Z,33.98
2023-08-30T15:13:26.556Z,33.60
2023-08-30T15:15:54.760Z,33.28
2023-08-30T15:18:22.385Z,33.00
2023-08-30T15:20:53.826Z,32.74
2023-08-30T15:23:21.513Z,32.51
2023-08-30T15:25:49.489Z,32.34
2023-08-30T15:28:17.282Z,32.16
2023-08-30T15:30:45.727Z,31.97
2023-08-30T15:33:15.329Z,31.78
2023-08-30T15:35:48.366Z,31.58
2023-08-30T15:38:16.861Z,31.42
2023-08-30T15:40:44.809Z,31.24
2023-08-30T15:43:12.713Z,31.07
2023-08-30T15:45:40.556Z,30.90
2023-08-30T15:48:08.170Z,30.74
2023-08-30T15:50:35.822Z,30.57
2023-08-30T15:53:03.485Z,30.43
2023-08-30T15:55:32.190Z,30.31
2023-08-30T15:57:59.971Z,30.20
2023-08-30T16:00:27.955Z,30.09
2023-08-30T16:02:55.815Z,29.97
2023-08-30T16:05:24.037Z,29.81
2023-08-30T16:07:51.730Z,29.36
2023-08-30T16:10:19.638Z,28.65
2023-08-30T16:12:47.521Z,28.05
2023-08-30T16:15:15.224Z,27.48
2023-08-30T16:17:42.860Z,26.97
2023-08-30T16:20:11.603Z,26.57
2023-08-30T16:22:39.509Z,26.18
2023-08-30T16:25:07.681Z,25.81
2023-08-30T16:27:35.203Z,25.49
2023-08-30T16:30:04.249Z,25.22
2023-08-30T16:32:32.581Z,24.99
2023-08-30T16:35:00.155Z,24.81
2023-08-30T16:37:27.944Z,24.62
2023-08-30T16:39:55.995Z,24.43
2023-08-30T16:42:23.640Z,24.25
2023-08-30T16:44:51.228Z,24.10
2023-08-30T16:47:18.808Z,23.99
2023-08-30T16:49:46.444Z,23.89
2023-08-30T16:52:14.025Z,23.83
2023-08-30T16:54:41.623Z,23.80
2023-08-30T16:57:09.239Z,23.74
2023-08-30T16:59:36.803Z,23.69
2023-08-30T17:02:07.859Z,23.66
2023-08-30T17:04:36.888Z,23.62
2023-08-30T17:07:05.741Z,23.55
2023-08-30T17:09:34.464Z,23.47
2023-08-30T17:12:01.950Z,23.40
2023-08-30T17:14:29.625Z,23.37
2023-08-30T17:16:59.846Z,23.36
2023-08-30T17:19:27.824Z,23.38
2023-08-30T17:21:56.926Z,23.42
2023-08-30T17:24:24.791Z,23.39
2023-08-30T17:26:54.416Z,23.37
2023-08-30T17:31:34.067Z,23.42
2023-08-30T17:34:02.390Z,23.47
2023-08-30T17:36:30.004Z,23.53
2023-08-30T17:39:06.037Z,23.54
2023-08-30T17:41:34.753Z,23.56
2023-08-30T17:44:02.578Z,23.57
2023-08-30T17:46:32.449Z,23.57
2023-08-30T17:49:00.442Z,23.60
2023-08-30T17:51:28.186Z,23.61
2023-08-30T17:53:56.008Z,23.60
2023-08-30T17:56:25.412Z,23.62
2023-08-30T17:58:53.140Z,23.65
2023-08-30T18:01:20.920Z,23.61
2023-08-30T18:03:48.702Z,23.58
2023-08-30T18:06:16.511Z,23.53
2023-08-30T18:08:45.752Z,23.48
2023-08-30T18:11:17.520Z,23.44
2023-08-30T18:13:45.602Z,23.39
2023-08-30T18:16:24.890Z,23.37
2023-08-30T18:18:54.605Z,23.34
2023-08-30T18:21:23.196Z,23.31
2023-08-30T18:24:27.935Z,23.30
2023-08-30T18:26:56.648Z,23.34
2023-08-30T18:29:26.157Z,23.33
2023-08-30T18:31:53.786Z,23.33
2023-08-30T18:34:21.597Z,23.29
2023-08-30T18:36:49.225Z,23.30
2023-08-30T18:39:18.237Z,23.26
2023-08-30T18:41:45.775Z,23.19
2023-08-30T18:44:14.372Z,23.16
2023-08-30T18:46:42.100Z,23.12
2023-08-30T18:49:09.957Z,23.14
2023-08-30T18:51:37.590Z,23.16
2023-08-30T18:54:06.043Z,23.14
2023-08-30T18:56:34.652Z,23.11
2023-08-30T18:59:02.484Z,23.06
2023-08-30T19:01:32.274Z,23.03
2023-08-30T19:04:00.067Z,22.98
2023-08-30T19:06:28.024Z,22.92
2023-08-30T19:08:56.573Z,22.88
2023-08-30T19:11:24.340Z,22.84
2023-08-30T19:13:53.636Z,22.83
2023-08-30T19:16:22.613Z,22.83
2023-08-30T19:18:50.713Z,22.78
2023-08-30T19:21:21.342Z,22.75
2023-08-30T19:23:49.504Z,22.72
2023-08-30T19:26:19.931Z,22.70
2023-08-30T19:28:48.757Z,22.66
2023-08-30T19:31:16.663Z,22.61
2023-08-30T19:33:44.467Z,22.57
2023-08-30T19:36:15.216Z,22.57
2023-08-30T19:38:42.848Z,22.59
2023-08-30T19:41:10.416Z,22.60
2023-08-30T19:43:37.970Z,22.61
2023-08-30T19:46:06.101Z,22.61
2023-08-30T19:48:33.928Z,22.59
2023-08-30T19:51:01.889Z,22.57
2023-08-30T19:53:29.802Z,22.52
2023-08-30T19:55:57.741Z,22.51
2023-08-30T19:58:25.408Z,22.52
2023-08-30T20:00:52.951Z,22.57
2023-08-30T20:03:21.464Z,22.57
2023-08-30T20:05:51.469Z,22.58
2023-08-30T20:08:19.048Z,22.60
2023-08-30T20:10:47.076Z,22.59
2023-08-30T20:13:14.865Z,22.58
2023-08-30T20:15:42.637Z,22.55
2023-08-30T20:18:11.681Z,22.51
2023-08-30T20:20:39.730Z,22.53
2023-08-30T20:23:07.663Z,22.57
2023-08-30T20:25:37.647Z,22.58
2023-08-30T20:28:05.978Z,22.56
2023-08-30T20:30:33.565Z,22.55
2023-08-30T20:33:01.144Z,22.53
2023-08-30T20:35:28.874Z,22.51
2023-08-30T20:37:57.144Z,22.49
2023-08-30T20:40:24.948Z,22.48
2023-08-30T20:42:52.523Z,22.51
2023-08-30T20:45:20.063Z,22.50
2023-08-30T20:47:47.599Z,22.48
2023-08-30T20:50:15.467Z,22.46
2023-08-30T20:52:43.132Z,22.45
2023-08-30T20:55:10.827Z,22.41
2023-08-30T20:57:38.718Z,22.35
2023-08-30T21:00:07.768Z,22.28
2023-08-30T21:02:37.124Z,22.27
2023-08-30T21:05:05.507Z,22.28
2023-08-30T21:07:33.155Z,22.27
2023-08-30T21:10:00.749Z,22.25
2023-08-30T21:12:28.436Z,22.23
2023-08-30T21:14:55.948Z,22.20
2023-08-30T21:17:23.953Z,22.16
2023-08-30T21:19:51.744Z,22.10
2023-08-30T21:22:19.320Z,22.09
2023-08-30T21:24:46.830Z,22.13
2023-08-30T21:27:14.414Z,22.09
2023-08-30T21:29:41.921Z,22.05
2023-08-30T21:32:09.440Z,22.01
2023-08-30T21:34:37.475Z,21.98
2023-08-30T21:37:05.199Z,21.94
2023-08-30T21:39:33.146Z,21.91
2023-08-30T21:42:01.542Z,21.92
2023-08-30T21:44:29.041Z,21.95
2023-08-30T21:46:56.766Z,21.92
2023-08-30T21:49:24.441Z,21.84
2023-08-30T21:51:52.085Z,21.85
2023-08-30T21:54:19.581Z,21.83
2023-08-30T21:56:47.105Z,21.78
2023-08-30T21:59:14.595Z,21.75
2023-08-30T22:01:42.488Z,21.69
2023-08-30T22:04:10.458Z,21.68
2023-08-30T22:06:38.101Z,21.69
2023-08-30T22:09:09.241Z,21.66
2023-08-30T22:11:36.995Z,21.61
2023-08-30T22:14:07.738Z,21.56
2023-08-30T22:16:35.383Z,21.51
2023-08-30T22:19:04.337Z,21.44
2023-08-30T22:21:33.702Z,21.28
2023-08-30T22:24:03.350Z,21.06
2023-08-30T22:26:31.148Z,20.80
2023-08-30T22:28:59.602Z,20.57
2023-08-30T22:31:27.198Z,20.39
2023-08-30T22:33:54.750Z,20.27
2023-08-30T22:36:22.347Z,20.19
2023-08-30T22:38:50.155Z,20.19
2023-08-30T22:41:18.276Z,20.18
2023-08-30T22:43:46.131Z,20.19
2023-08-30T22:46:13.887Z,20.15
2023-08-30T22:48:47.931Z,20.14
2023-08-30T22:51:27.855Z,20.14
2023-08-30T22:54:03.411Z,20.20
2023-08-30T22:56:31.043Z,20.28
2023-08-30T22:58:58.778Z,20.34
2023-08-30T23:01:26.462Z,20.37
2023-08-30T23:03:55.309Z,20.39
2023-08-30T23:06:23.468Z,20.39
2023-08-30T23:08:51.027Z,20.40
2023-08-30T23:11:19.016Z,20.44
2023-08-30T23:13:46.659Z,20.51
2023-08-30T23:16:14.837Z,20.52
2023-08-30T23:18:42.498Z,20.53
2023-08-30T23:21:16.887Z,20.55
2023-08-30T23:23:44.559Z,20.54
2023-08-30T23:26:12.095Z,20.53
2023-08-30T23:28:39.759Z,20.55
2023-08-30T23:31:11.240Z,20.60
2023-08-30T23:33:39.904Z,20.61
2023-08-30T23:36:07.445Z,20.60
2023-08-30T23:38:35.299Z,20.59
2023-08-30T23:41:04.047Z,20.58
2023-08-30T23:43:31.543Z,20.52
2023-08-30T23:45:59.229Z,20.58
2023-08-30T23:48:27.064Z,20.60
2023-08-30T23:50:54.913Z,20.60
2023-08-30T23:53:23.149Z,20.58
2023-08-30T23:55:52.269Z,20.58
2023-08-30T23:58:21.001Z,20.57
